Detalii statie AGROMEC VLAD TEPES [00001989]

Toti senzorii

Date Temperatura solului [C]Precipitatii [mm]Voltaj baterie [mV]Leaf Wetness [Min]HC Air temperature [C]HC Relative humidity [%]Punctul de roua [C]
medieminmaxsumaultimatimpmedieminmaxmediemediemin
2018-08-12 11:00:00 27.6 27 28.8 0 6982 29.33 28.41 30.25 62.59 21.2 19.9
2018-08-12 12:00:00 28.7 28 29.3 0 7000 30.58 29.89 31.44 63.76 22.7 22
2018-08-12 13:00:00 30.2 29.5 31 0 6922 31.16 30.58 31.66 61.88 22.7 21.9
2018-08-12 14:00:00 32.9 31.6 41.6 0 6932 31.58 30.76 32.17 71.72 25.6 23.6
2018-08-12 15:00:00 32.6 32.1 34.3 0 6874 30.72 29.61 31.91 77.19 26.1 25.2
2018-08-12 16:00:00 33 32.9 33.2 0 6844 31.7 30.5 32.73 74.72 26.4 24.7
2018-08-12 17:00:00 33.4 33.3 33.6 0 6806 30.63 28.92 31.98 63.56 22.6 17.5
2018-08-12 18:00:00 33.6 33.3 34.9 0 6708 28.77 28.46 28.98 61.91 20.5 19.1
2018-08-12 19:00:00 33 32.6 34 0 6678 27.51 26.18 28.31 96.08 26.7 24.9
2018-08-12 20:00:00 32.4 31.9 33.6 0 6640 24.07 22.22 25.91 95.64 23.2 21.9
2018-08-12 21:00:00 31.4 31.2 31.8 0 6600 23.17 22.55 24.01 93.83 22 21.1
2018-08-12 22:00:00 30.8 30.5 31.2 0 6610 21.77 21.23 22.47 97.97 21.3 20.7
2018-08-12 23:00:00 30.2 29.7 31.3 0 6600 21.08 20.05 21.46 99.48 20.9 20
2018-08-13 00:00:00 29.4 29.1 29.7 0 6620 18.11 16.58 19.72 100 18 16.5
2018-08-13 01:00:00 29 28.1 30.4 0 6600 16.52 16.24 16.71 100 16.4 16.2
2018-08-13 02:00:00 28.5 28.2 30.1 0 6610 16.31 15.56 17.05 100 16.2 15.5
2018-08-13 03:00:00 27.9 27.7 28.2 0 6610 15.37 14.93 15.66 100 15.3 14.9
2018-08-13 04:00:00 27.6 27.2 29 0 6590 14.69 14.46 15.01 100 14.6 14.4
2018-08-13 05:00:00 27.1 26.9 27.4 0 6582 14.14 13.98 14.4 100 14.1 13.9
2018-08-13 06:00:00 26.8 26.5 27.8 0 6610 14.68 14.23 15.23 100 14.6 14.2
2018-08-13 07:00:00 26.3 26.3 26.6 0 7206 18 15.48 20.4 100 17.9 15.4
2018-08-13 08:00:00 26.3 26.1 27.7 0 7284 21.53 20.64 22.66 100 21.4 20.6
2018-08-13 09:00:00 26.3 26.2 26.6 0 7246 24.95 22.8 27.08 99.62 24.8 22.8
2018-08-13 10:00:00 26.8 26.4 27.2 0 7098 27.75 26.5 28.86 98.61 27.4 25.8
2018-08-13 11:00:00 28.7 27.6 37.5 0 6982 29.27 27.8 30.28 95 28.2 26.6
2018-08-13 12:00:00 29 28.4 29.7 0 7000 30.22 29.74 30.83 91.78 28.6 27.9
2018-08-13 13:00:00 31.4 30.2 39.9 0 6972 31.05 30.52 32.31 89.43 28.9 28.1
2018-08-13 14:00:00 31.6 31.2 32.1 0 6874 31.4 30.96 31.82 86.95 28.8 27.8
2018-08-13 15:00:00 32.6 32.2 33.1 0 6834 31.62 31.16 32.55 87.64 29.1 28.5
2018-08-13 16:00:00 42 40.2 43.6 0 6688 60 31.85 31.35 32.49 85.03 28.8 28.1
2018-08-13 17:00:00 33.9 33.7 34.2 0 6698 31.48 30.14 32.44 81.83 27.8 27.1
2018-08-13 18:00:00 33.8 33.6 34.2 0 6728 29.99 29.52 30.34 89.49 27.9 27.2
2018-08-13 19:00:00 33.2 32.8 33.6 0 6678 28.66 27.51 29.29 91.8 27 26.3
2018-08-13 20:00:00 32.5 32 34.1 0 6600 26.43 25.52 27.38 95.8 25.5 24.6
2018-08-13 21:00:00 31.7 31.3 32.2 0 6630 24.58 23.51 25.65 99.56 24.4 23.5
2018-08-13 22:00:00 31 30.8 31.3 0 6600 22.03 20.29 23.34 99.96 21.9 20.2
2018-08-13 23:00:00 30.6 30.1 31.9 0 6600 19.66 17.78 20.19 100 19.6 17.7
2018-08-14 00:00:00 29.6 29.4 30.1 0 6600 18.31 16.91 18.89 100 18.2 16.9
2018-08-14 01:00:00 29.3 28.3 30.7 0 6600 16.02 15.39 16.81 100 15.9 15.3
2018-08-14 02:00:00 28.5 28.2 28.7 0 6600 14.94 14.31 16.06 100 14.9 14.3
2018-08-14 03:00:00 28 27.9 28.2 0 6600 14.11 13.88 14.46 100 14 13.8
2018-08-14 04:00:00 27.5 27.4 27.8 0 6582 13.43 12.92 14.11 100 13.4 12.9
2018-08-14 05:00:00 27.1 26.9 27.3 0 6590 12.7 12.37 13.22 100 12.6 12.3
2018-08-14 06:00:00 26.6 26.3 26.9 0 6620 12.72 12.33 13.4 100 12.6 12.3
2018-08-14 07:00:00 26.3 26.1 27.6 0 7246 16.16 13.85 18.62 100 16.1 13.8
2018-08-14 08:00:00 26.1 25.9 27.4 0 7284 21.7 19.16 23.43 100 21.6 19.1
2018-08-14 09:00:00 26.3 25.9 27.7 0 7246 25.23 23.85 26.91 100 25.2 23.8
2018-08-14 10:00:00 26.8 26.4 28 0 7088 27.87 27.1 29.17 98.5 27.5 27.1